createdAt,value
2023-06-25T00:02:01.145Z,0.00
2023-06-25T00:04:27.495Z,0.00
2023-06-25T00:06:55.013Z,0.00
2023-06-25T00:09:21.657Z,0.00
2023-06-25T00:11:47.976Z,0.10
2023-06-25T00:14:14.467Z,0.00
2023-06-25T00:16:40.822Z,0.00
2023-06-25T00:19:07.137Z,0.10
2023-06-25T00:21:33.464Z,0.03
2023-06-25T00:23:59.819Z,0.00
2023-06-25T00:26:26.157Z,0.00
2023-06-25T00:28:52.459Z,0.00
2023-06-25T00:31:18.887Z,0.10
2023-06-25T00:33:47.836Z,0.00
2023-06-25T00:36:16.554Z,0.00
2023-06-25T00:38:43.633Z,0.00
2023-06-25T00:41:11.244Z,0.00
2023-06-25T00:43:42.977Z,0.10
2023-06-25T00:46:13.898Z,0.00
2023-06-25T00:48:41.236Z,0.00
2023-06-25T00:51:07.654Z,0.00
2023-06-25T00:53:35.705Z,0.10
2023-06-25T00:56:02.067Z,0.00
2023-06-25T00:58:28.417Z,0.10
2023-06-25T01:00:57.737Z,0.00
2023-06-25T01:03:29.174Z,0.10
2023-06-25T01:06:10.978Z,0.00
2023-06-25T01:08:39.737Z,0.00
2023-06-25T01:11:07.027Z,0.00
2023-06-25T01:13:33.453Z,0.10
2023-06-25T01:15:59.815Z,0.00
2023-06-25T01:18:26.215Z,0.00
2023-06-25T01:20:53.342Z,0.00
2023-06-25T01:23:22.569Z,0.00
2023-06-25T01:25:49.892Z,0.00
2023-06-25T01:28:21.371Z,0.00
2023-06-25T01:30:48.711Z,0.00
2023-06-25T01:33:17.076Z,0.00
2023-06-25T01:35:43.504Z,0.10
2023-06-25T01:38:09.934Z,0.00
2023-06-25T01:40:36.374Z,0.00
2023-06-25T01:43:02.745Z,0.00
2023-06-25T01:45:29.142Z,0.00
2023-06-25T01:47:55.517Z,0.00
2023-06-25T01:50:21.904Z,0.00
2023-06-25T01:52:48.281Z,0.00
2023-06-25T01:55:14.643Z,0.00
2023-06-25T01:57:41.008Z,0.00
2023-06-25T02:00:12.256Z,0.00
2023-06-25T02:02:38.687Z,0.00
2023-06-25T02:05:05.299Z,0.00
2023-06-25T02:07:31.630Z,0.00
2023-06-25T02:09:57.995Z,0.00
2023-06-25T02:12:24.310Z,0.00
2023-06-25T02:14:50.633Z,0.00
2023-06-25T02:17:16.958Z,0.00
2023-06-25T02:19:43.316Z,0.00
2023-06-25T02:22:09.664Z,0.05
2023-06-25T02:24:35.948Z,0.10
2023-06-25T02:27:02.357Z,0.00
2023-06-25T02:29:28.709Z,0.00
2023-06-25T02:31:55.220Z,0.00
2023-06-25T02:34:21.715Z,0.00
2023-06-25T02:36:48.586Z,0.00
2023-06-25T02:39:15.005Z,0.00
2023-06-25T02:41:41.331Z,0.00
2023-06-25T02:44:07.638Z,0.00
2023-06-25T02:46:35.697Z,0.00
2023-06-25T02:49:02.416Z,0.00
2023-06-25T02:51:28.859Z,0.00
2023-06-25T02:53:55.268Z,0.00
2023-06-25T02:56:21.611Z,0.08
2023-06-25T02:58:47.953Z,0.00
2023-06-25T03:01:14.347Z,0.15
2023-06-25T03:03:40.699Z,0.00
2023-06-25T03:06:07.066Z,0.00
2023-06-25T03:08:33.436Z,0.00
2023-06-25T03:10:59.719Z,0.00
2023-06-25T03:13:26.095Z,0.00
2023-06-25T03:15:52.377Z,0.10
2023-06-25T03:18:18.780Z,0.00
2023-06-25T03:20:45.224Z,0.00
2023-06-25T03:23:11.638Z,0.10
2023-06-25T03:25:38.135Z,0.00
2023-06-25T03:28:04.757Z,0.00
2023-06-25T03:30:31.233Z,0.00
2023-06-25T03:32:57.602Z,0.03
2023-06-25T03:35:24.019Z,0.10
2023-06-25T03:37:50.372Z,0.00
2023-06-25T03:40:16.811Z,0.00
2023-06-25T03:42:43.182Z,0.00
2023-06-25T03:45:10.079Z,0.00
2023-06-25T03:47:36.515Z,0.00
2023-06-25T03:50:02.887Z,0.00
2023-06-25T03:52:29.259Z,0.00
2023-06-25T03:54:55.582Z,0.10
2023-06-25T03:57:23.515Z,0.03
2023-06-25T03:59:50.287Z,0.00
2023-06-25T04:02:16.767Z,0.00
2023-06-25T04:04:43.493Z,0.00
2023-06-25T04:07:09.975Z,0.00
2023-06-25T04:09:36.299Z,0.03
2023-06-25T04:12:02.741Z,0.00
2023-06-25T04:14:29.148Z,0.00
2023-06-25T04:16:55.486Z,0.05
2023-06-25T04:19:21.840Z,0.08
2023-06-25T04:21:48.200Z,0.00
2023-06-25T04:24:14.615Z,0.10
2023-06-25T04:26:40.977Z,0.00
2023-06-25T04:29:07.384Z,0.00
2023-06-25T04:31:33.767Z,0.10
2023-06-25T04:34:00.140Z,0.00
2023-06-25T04:36:26.444Z,0.00
2023-06-25T04:38:52.719Z,0.00
2023-06-25T04:41:19.044Z,0.00
2023-06-25T04:43:45.385Z,0.00
2023-06-25T04:46:11.845Z,0.00
2023-06-25T04:48:38.801Z,0.00
2023-06-25T04:51:05.177Z,0.10
2023-06-25T04:53:33.762Z,0.13
2023-06-25T04:56:01.175Z,0.00
2023-06-25T04:58:27.639Z,0.00
2023-06-25T05:00:53.970Z,0.00
2023-06-25T05:03:20.426Z,0.03
2023-06-25T05:05:46.698Z,0.00
2023-06-25T05:08:13.359Z,0.00
2023-06-25T05:10:41.571Z,0.00
2023-06-25T05:13:07.915Z,0.15
2023-06-25T05:15:34.480Z,0.08
2023-06-25T05:18:01.016Z,0.00
2023-06-25T05:20:27.457Z,0.00
2023-06-25T05:22:53.823Z,0.00
2023-06-25T05:25:20.193Z,0.10
2023-06-25T05:27:46.543Z,0.00
2023-06-25T05:30:12.945Z,0.15
2023-06-25T05:32:39.291Z,0.10
2023-06-25T05:35:06.085Z,0.00
2023-06-25T05:37:32.408Z,0.00
2023-06-25T05:39:58.740Z,0.10
2023-06-25T05:42:25.045Z,0.05
2023-06-25T05:44:51.384Z,0.10
2023-06-25T05:47:17.797Z,0.10
2023-06-25T05:49:44.444Z,0.10
2023-06-25T05:52:10.793Z,0.03
2023-06-25T05:54:37.099Z,0.22
2023-06-25T05:57:03.551Z,0.10
2023-06-25T05:59:29.947Z,0.10
2023-06-25T06:01:56.290Z,0.10
2023-06-25T06:04:22.747Z,0.10
2023-06-25T06:06:49.115Z,0.10
2023-06-25T06:09:15.536Z,0.10
2023-06-25T06:11:41.866Z,0.10
2023-06-25T06:14:08.178Z,0.10
2023-06-25T06:16:34.566Z,0.20
2023-06-25T06:19:01.341Z,0.20
2023-06-25T06:21:27.676Z,0.20
2023-06-25T06:23:54.006Z,0.40
2023-06-25T06:26:20.286Z,0.45
2023-06-25T06:28:46.580Z,0.50
2023-06-25T06:31:12.968Z,0.50
2023-06-25T06:33:40.196Z,0.50
2023-06-25T06:36:06.694Z,0.60
2023-06-25T06:38:33.137Z,0.60
2023-06-25T06:40:59.540Z,0.70
2023-06-25T06:43:25.885Z,0.60
2023-06-25T06:45:52.231Z,0.70
2023-06-25T06:48:18.657Z,0.80
2023-06-25T06:50:45.011Z,0.90
2023-06-25T06:53:11.312Z,0.80
2023-06-25T06:55:37.962Z,0.80
2023-06-25T06:58:04.456Z,0.90
2023-06-25T07:00:31.381Z,0.88
2023-06-25T07:02:58.524Z,0.90
2023-06-25T07:05:25.147Z,0.90
2023-06-25T07:07:51.794Z,0.90
2023-06-25T07:10:18.189Z,0.90
2023-06-25T07:12:44.543Z,1.08
2023-06-25T07:15:10.921Z,1.00
2023-06-25T07:17:37.318Z,1.08
2023-06-25T07:20:03.809Z,1.20
2023-06-25T07:22:30.177Z,1.20
2023-06-25T07:24:56.526Z,1.13
2023-06-25T07:27:22.837Z,1.20
2023-06-25T07:29:49.147Z,1.20
2023-06-25T07:32:15.507Z,1.25
2023-06-25T07:34:41.863Z,1.30
2023-06-25T07:37:08.381Z,1.30
2023-06-25T07:39:34.957Z,1.40
2023-06-25T07:42:03.073Z,1.40
2023-06-25T07:46:58.888Z,1.40
2023-06-25T07:49:25.204Z,1.50
2023-06-25T07:51:52.125Z,1.52
2023-06-25T07:54:18.568Z,1.58
2023-06-25T07:56:45.476Z,1.52
2023-06-25T07:59:15.291Z,1.48
2023-06-25T08:01:41.685Z,1.60
2023-06-25T08:04:08.532Z,1.67
2023-06-25T08:06:35.132Z,1.55
2023-06-25T08:09:01.461Z,1.50
2023-06-25T08:11:27.852Z,1.60
2023-06-25T08:13:54.178Z,1.60
2023-06-25T08:16:20.593Z,1.50
2023-06-25T08:18:46.983Z,1.40
2023-06-25T08:21:13.380Z,1.40
2023-06-25T08:23:39.671Z,1.30
2023-06-25T08:26:06.081Z,1.40
2023-06-25T08:28:32.416Z,1.20
2023-06-25T08:30:58.841Z,1.20
2023-06-25T08:33:25.229Z,1.20
2023-06-25T08:35:51.666Z,1.10
2023-06-25T08:38:20.294Z,1.00
2023-06-25T08:40:47.902Z,0.95
2023-06-25T08:43:14.342Z,1.00
2023-06-25T08:45:41.693Z,0.90
2023-06-25T08:48:11.904Z,0.80
2023-06-25T08:50:38.803Z,0.70
2023-06-25T08:53:05.180Z,0.70
2023-06-25T08:55:31.727Z,0.70
2023-06-25T08:57:58.098Z,0.70
2023-06-25T09:00:24.444Z,0.60
2023-06-25T09:02:50.920Z,0.60
2023-06-25T09:05:23.862Z,0.60
2023-06-25T09:07:50.268Z,0.60
2023-06-25T09:10:17.482Z,0.55
2023-06-25T09:12:48.601Z,0.60
2023-06-25T09:15:24.949Z,0.50
2023-06-25T09:17:55.279Z,0.50
2023-06-25T09:20:21.998Z,0.50
2023-06-25T09:22:57.008Z,0.47
2023-06-25T09:25:29.704Z,0.40
2023-06-25T09:27:56.579Z,0.40
2023-06-25T09:30:23.496Z,0.40
2023-06-25T09:32:51.009Z,0.32
2023-06-25T09:35:24.048Z,0.40
2023-06-25T09:37:50.853Z,0.40
2023-06-25T09:40:17.240Z,0.30
2023-06-25T09:42:44.994Z,0.30
2023-06-25T09:45:13.569Z,0.30
2023-06-25T09:47:41.692Z,0.30
2023-06-25T09:50:08.980Z,0.30
2023-06-25T09:52:35.908Z,0.35
2023-06-25T09:55:03.218Z,0.30
2023-06-25T09:57:29.857Z,0.40
2023-06-25T09:59:56.327Z,0.43
2023-06-25T10:02:22.967Z,0.30
2023-06-25T10:04:50.733Z,0.30
2023-06-25T10:07:17.522Z,0.30
2023-06-25T10:09:54.238Z,0.30
2023-06-25T10:12:20.664Z,0.30
2023-06-25T10:14:48.030Z,0.40
2023-06-25T10:17:15.402Z,0.30
2023-06-25T10:19:55.972Z,0.32
2023-06-25T10:22:23.045Z,0.30
2023-06-25T10:24:50.848Z,0.30
2023-06-25T10:27:29.559Z,0.30
2023-06-25T10:29:57.759Z,0.30
2023-06-25T10:32:25.349Z,0.30
2023-06-25T10:34:55.712Z,0.40
2023-06-25T10:37:22.245Z,0.40
2023-06-25T10:39:48.916Z,0.30
2023-06-25T10:42:15.404Z,0.30
2023-06-25T10:44:42.113Z,0.30
2023-06-25T10:47:09.530Z,0.30
2023-06-25T10:49:36.389Z,0.40
2023-06-25T10:52:03.504Z,0.50
2023-06-25T10:54:31.476Z,0.30
2023-06-25T10:57:07.852Z,0.30
2023-06-25T10:59:34.401Z,0.40
2023-06-25T11:02:14.241Z,0.40
2023-06-25T11:04:40.869Z,0.40
2023-06-25T11:07:07.992Z,0.40
2023-06-25T11:09:34.408Z,0.40
2023-06-25T11:12:00.735Z,0.35
2023-06-25T11:14:27.093Z,0.40
2023-06-25T11:16:53.457Z,0.32
2023-06-25T11:19:19.833Z,0.40
2023-06-25T11:21:46.157Z,0.30
2023-06-25T11:24:14.002Z,0.30
2023-06-25T11:26:43.903Z,0.30
2023-06-25T11:29:10.987Z,0.50
2023-06-25T11:31:49.548Z,0.30
2023-06-25T11:34:22.557Z,0.40
2023-06-25T11:36:49.149Z,0.30
2023-06-25T11:39:16.355Z,0.30
2023-06-25T11:41:45.749Z,0.30
2023-06-25T11:44:22.012Z,0.40
2023-06-25T11:46:52.145Z,0.40
2023-06-25T11:49:19.246Z,0.40
2023-06-25T11:51:45.840Z,0.30
2023-06-25T11:54:12.686Z,0.40
2023-06-25T11:56:38.979Z,0.40
2023-06-25T11:59:05.344Z,0.50
2023-06-25T12:01:31.726Z,0.40
2023-06-25T12:03:58.148Z,0.50
2023-06-25T12:06:26.201Z,0.35
2023-06-25T12:08:52.549Z,0.40
2023-06-25T12:11:18.924Z,0.50
2023-06-25T12:13:45.303Z,0.50
2023-06-25T12:16:13.189Z,0.40
2023-06-25T12:18:39.586Z,0.50
2023-06-25T12:21:05.988Z,0.45
2023-06-25T12:23:32.296Z,0.40
2023-06-25T12:25:58.647Z,0.40
2023-06-25T12:28:25.044Z,0.40
2023-06-25T12:30:51.407Z,0.40
2023-06-25T12:33:17.777Z,0.50
2023-06-25T12:35:44.143Z,0.40
2023-06-25T12:38:10.786Z,0.50
2023-06-25T12:40:37.119Z,0.50
2023-06-25T12:43:03.464Z,0.40
2023-06-25T12:45:29.807Z,0.50
2023-06-25T12:47:56.349Z,0.50
2023-06-25T12:50:22.824Z,0.52
2023-06-25T12:52:49.174Z,0.50
2023-06-25T12:55:15.557Z,0.50
2023-06-25T12:57:41.868Z,0.50
2023-06-25T13:00:12.855Z,0.47
2023-06-25T13:02:44.306Z,0.80
2023-06-25T13:05:10.755Z,0.47
2023-06-25T13:07:37.238Z,0.40
2023-06-25T13:10:03.727Z,0.40
2023-06-25T13:12:30.128Z,0.50
2023-06-25T13:14:56.519Z,0.68
2023-06-25T13:17:22.859Z,0.45
2023-06-25T13:19:49.822Z,0.50
2023-06-25T13:22:17.890Z,0.50
2023-06-25T13:24:44.274Z,0.50
2023-06-25T13:27:10.632Z,0.50
2023-06-25T13:29:37.051Z,0.40
2023-06-25T13:32:03.496Z,0.50
2023-06-25T13:34:29.775Z,0.50
2023-06-25T13:36:56.100Z,0.50
2023-06-25T13:39:22.476Z,0.50
2023-06-25T13:41:48.824Z,0.50
2023-06-25T13:44:15.244Z,0.50
2023-06-25T13:46:41.713Z,0.50
2023-06-25T13:49:08.126Z,0.50
2023-06-25T13:51:34.469Z,0.40
2023-06-25T13:54:00.800Z,0.50
2023-06-25T13:56:27.160Z,0.50
2023-06-25T13:58:53.537Z,0.50
2023-06-25T14:01:19.921Z,0.50
2023-06-25T14:03:46.419Z,0.52
2023-06-25T14:06:12.887Z,0.50
2023-06-25T14:08:39.485Z,0.50
2023-06-25T14:11:05.946Z,0.50
2023-06-25T14:13:33.377Z,0.50
2023-06-25T14:16:14.299Z,0.50
2023-06-25T14:18:42.148Z,0.50
2023-06-25T14:21:08.442Z,0.57
2023-06-25T14:23:34.815Z,0.50
2023-06-25T14:26:01.164Z,0.60
2023-06-25T14:28:30.761Z,0.50
2023-06-25T14:31:00.499Z,0.55
2023-06-25T14:33:30.294Z,0.55
2023-06-25T14:35:56.708Z,0.50
2023-06-25T14:38:23.006Z,0.50
2023-06-25T14:40:49.365Z,0.50
2023-06-25T14:43:15.714Z,0.60
2023-06-25T14:45:42.080Z,0.60
2023-06-25T14:48:10.425Z,0.60
2023-06-25T14:50:36.897Z,0.60
2023-06-25T14:53:03.245Z,0.55
2023-06-25T14:55:29.531Z,0.50
2023-06-25T14:57:55.836Z,0.60
2023-06-25T15:00:22.145Z,0.57
2023-06-25T15:02:48.573Z,0.55
2023-06-25T15:05:14.953Z,0.60
2023-06-25T15:07:41.214Z,0.57
2023-06-25T15:10:07.779Z,0.60
2023-06-25T15:12:35.094Z,0.60
2023-06-25T15:15:02.197Z,0.55
2023-06-25T15:17:28.757Z,0.60
2023-06-25T15:19:55.153Z,0.60
2023-06-25T15:22:21.591Z,0.60
2023-06-25T15:24:47.910Z,0.52
2023-06-25T15:27:14.261Z,0.55
2023-06-25T15:29:40.588Z,0.60
2023-06-25T15:32:07.425Z,0.70
2023-06-25T15:34:33.748Z,0.50
2023-06-25T15:37:00.172Z,0.60
2023-06-25T15:39:26.580Z,0.60
2023-06-25T15:41:53.235Z,0.60
2023-06-25T15:44:19.790Z,0.52
2023-06-25T15:46:46.454Z,0.52
2023-06-25T15:49:12.767Z,0.60
2023-06-25T15:51:40.060Z,0.60
2023-06-25T15:54:17.101Z,0.57
2023-06-25T15:56:51.159Z,0.55
2023-06-25T15:59:17.654Z,0.50
2023-06-25T16:01:43.978Z,0.60
2023-06-25T16:04:10.389Z,0.50
2023-06-25T16:06:36.804Z,0.60
2023-06-25T16:09:03.238Z,0.57
2023-06-25T16:11:29.694Z,0.60
2023-06-25T16:13:56.042Z,0.60
2023-06-25T16:16:22.358Z,0.55
2023-06-25T16:18:51.366Z,0.70
2023-06-25T16:21:22.214Z,0.50
2023-06-25T16:23:48.569Z,0.65
2023-06-25T16:26:14.892Z,0.68
2023-06-25T16:28:41.302Z,0.50
2023-06-25T16:31:07.685Z,0.50
2023-06-25T16:33:34.132Z,0.50
2023-06-25T16:36:00.450Z,0.57
2023-06-25T16:38:26.801Z,0.60
2023-06-25T16:40:53.122Z,0.55
2023-06-25T16:43:19.460Z,0.60
2023-06-25T16:45:45.764Z,0.60
2023-06-25T16:48:12.135Z,0.93
2023-06-25T16:50:38.549Z,0.50
2023-06-25T16:53:04.825Z,0.60
2023-06-25T16:55:31.148Z,0.50
2023-06-25T16:57:57.483Z,0.50
2023-06-25T17:00:23.804Z,0.50
2023-06-25T17:02:50.258Z,0.60
2023-06-25T17:05:16.743Z,0.60
2023-06-25T17:07:43.097Z,0.55
2023-06-25T17:10:09.513Z,0.50
2023-06-25T17:12:35.803Z,0.60
2023-06-25T17:15:02.168Z,0.60
2023-06-25T17:17:28.586Z,0.50
2023-06-25T17:19:55.000Z,0.60
2023-06-25T17:22:21.396Z,0.50
2023-06-25T17:24:47.684Z,0.60
2023-06-25T17:27:14.064Z,0.50
2023-06-25T17:29:41.341Z,0.60
2023-06-25T17:32:07.920Z,0.50
2023-06-25T17:34:34.360Z,0.50
2023-06-25T17:37:00.745Z,0.50
2023-06-25T17:39:27.204Z,0.60
2023-06-25T17:41:53.577Z,0.50
2023-06-25T17:44:19.884Z,0.50
2023-06-25T17:46:46.139Z,0.50
2023-06-25T17:49:12.592Z,0.50
2023-06-25T17:51:38.973Z,0.50
2023-06-25T17:54:05.339Z,0.50
2023-06-25T17:56:32.087Z,0.50
2023-06-25T17:58:58.417Z,0.50
2023-06-25T18:01:24.786Z,0.50
2023-06-25T18:03:51.224Z,0.43
2023-06-25T18:06:18.180Z,0.60
2023-06-25T18:08:44.572Z,0.47
2023-06-25T18:11:21.026Z,0.52
2023-06-25T18:13:47.990Z,0.50
2023-06-25T18:16:14.324Z,0.40
2023-06-25T18:18:44.405Z,0.50
2023-06-25T18:21:10.782Z,0.50
2023-06-25T18:23:37.096Z,0.40
2023-06-25T18:26:03.473Z,0.40
2023-06-25T18:28:29.756Z,0.40
2023-06-25T18:30:58.534Z,0.50
2023-06-25T18:33:24.910Z,0.38
2023-06-25T18:35:51.268Z,0.30
2023-06-25T18:38:17.600Z,0.40
2023-06-25T18:40:44.000Z,0.40
2023-06-25T18:43:10.680Z,0.40
2023-06-25T18:45:37.011Z,0.40
2023-06-25T18:48:03.473Z,0.70
2023-06-25T18:50:29.880Z,0.30
2023-06-25T18:52:56.238Z,0.32
2023-06-25T18:55:22.673Z,0.30
2023-06-25T18:57:49.011Z,0.40
2023-06-25T19:00:15.582Z,0.40
2023-06-25T19:02:42.140Z,0.35
2023-06-25T19:05:08.983Z,0.30
2023-06-25T19:07:40.266Z,0.30
2023-06-25T19:10:07.344Z,0.20
2023-06-25T19:12:33.746Z,0.30
2023-06-25T19:15:00.041Z,0.30
2023-06-25T19:17:29.480Z,0.30
2023-06-25T19:19:55.874Z,0.30
2023-06-25T19:22:22.169Z,0.30
2023-06-25T19:24:49.113Z,0.30
2023-06-25T19:27:15.732Z,0.38
2023-06-25T19:29:42.032Z,0.35
2023-06-25T19:32:08.519Z,0.20
2023-06-25T19:34:34.853Z,0.20
2023-06-25T19:37:02.575Z,0.20
2023-06-25T19:39:29.178Z,0.40
2023-06-25T19:41:56.463Z,0.20
2023-06-25T19:44:22.808Z,0.20
2023-06-25T19:46:49.159Z,0.20
2023-06-25T19:49:15.527Z,0.30
2023-06-25T19:51:42.067Z,0.20
2023-06-25T19:54:08.722Z,0.20
2023-06-25T19:56:35.081Z,0.20
2023-06-25T19:59:01.872Z,0.25
2023-06-25T20:01:28.274Z,0.20
2023-06-25T20:03:54.721Z,0.20
2023-06-25T20:06:21.386Z,0.40
2023-06-25T20:08:47.757Z,0.20
2023-06-25T20:11:14.065Z,0.20
2023-06-25T20:13:40.397Z,0.20
2023-06-25T20:16:06.788Z,0.20
2023-06-25T20:18:33.128Z,0.30
2023-06-25T20:20:59.503Z,0.30
2023-06-25T20:23:26.878Z,0.35
2023-06-25T20:25:54.208Z,0.20
2023-06-25T20:28:20.507Z,0.10
2023-06-25T20:30:46.835Z,0.28
2023-06-25T20:33:13.283Z,0.20
2023-06-25T20:35:39.584Z,0.28
2023-06-25T20:38:06.166Z,0.10
2023-06-25T20:40:32.521Z,0.20
2023-06-25T20:42:58.868Z,0.20
2023-06-25T20:45:25.233Z,0.20
2023-06-25T20:47:54.691Z,0.10
2023-06-25T20:50:21.411Z,0.15
2023-06-25T20:52:48.020Z,0.10
2023-06-25T20:55:14.499Z,0.10
2023-06-25T20:57:40.948Z,0.10
2023-06-25T21:00:09.005Z,0.10
2023-06-25T21:02:35.486Z,0.17
2023-06-25T21:05:01.996Z,0.10
2023-06-25T21:07:28.480Z,0.10
2023-06-25T21:09:54.926Z,0.20
2023-06-25T21:12:21.375Z,0.10
2023-06-25T21:14:47.786Z,0.10
2023-06-25T21:17:14.145Z,0.10
2023-06-25T21:19:40.475Z,0.10
2023-06-25T21:22:06.809Z,0.10
2023-06-25T21:24:33.205Z,0.10
2023-06-25T21:26:59.517Z,0.10
2023-06-25T21:29:25.816Z,0.10
2023-06-25T21:31:52.149Z,0.10
2023-06-25T21:34:18.514Z,0.10
2023-06-25T21:36:44.866Z,0.00
2023-06-25T21:39:13.256Z,0.10
2023-06-25T21:41:40.624Z,0.00
2023-06-25T21:44:06.969Z,0.10
2023-06-25T21:46:33.334Z,0.10
2023-06-25T21:48:59.715Z,0.15
2023-06-25T21:51:26.070Z,0.10
2023-06-25T21:53:53.009Z,0.30
2023-06-25T21:56:19.329Z,0.10
2023-06-25T21:58:45.695Z,0.10
2023-06-25T22:01:12.115Z,0.10
2023-06-25T22:03:38.545Z,0.10
2023-06-25T22:06:04.915Z,0.10
2023-06-25T22:08:31.606Z,0.13
2023-06-25T22:10:58.115Z,0.10
2023-06-25T22:13:24.415Z,0.10
2023-06-25T22:15:50.769Z,0.10
2023-06-25T22:18:17.175Z,0.10
2023-06-25T22:20:43.542Z,0.00
2023-06-25T22:23:09.914Z,0.00
2023-06-25T22:25:36.249Z,0.00
2023-06-25T22:28:03.539Z,0.10
2023-06-25T22:30:29.956Z,0.10
2023-06-25T22:32:56.408Z,0.05
2023-06-25T22:35:22.747Z,0.10
2023-06-25T22:37:49.109Z,0.22
2023-06-25T22:40:15.593Z,0.00
2023-06-25T22:42:42.007Z,0.10
2023-06-25T22:45:08.655Z,0.03
2023-06-25T22:47:34.980Z,0.28
2023-06-25T22:50:01.394Z,0.10
2023-06-25T22:52:27.776Z,0.10
2023-06-25T22:54:54.738Z,0.00
2023-06-25T22:57:21.601Z,0.20
2023-06-25T22:59:48.017Z,0.13
2023-06-25T23:02:14.485Z,0.10
2023-06-25T23:04:43.744Z,0.00
2023-06-25T23:07:10.284Z,0.10
2023-06-25T23:09:36.626Z,0.10
2023-06-25T23:12:02.992Z,0.10
2023-06-25T23:14:29.293Z,0.00
2023-06-25T23:16:56.110Z,0.10
2023-06-25T23:19:22.544Z,0.10
2023-06-25T23:21:49.408Z,0.00
2023-06-25T23:24:15.805Z,0.20
2023-06-25T23:26:46.232Z,0.10
2023-06-25T23:29:16.004Z,0.10
2023-06-25T23:31:42.557Z,0.10
2023-06-25T23:34:08.993Z,0.35
2023-06-25T23:36:35.462Z,0.00
2023-06-25T23:39:01.816Z,0.10
2023-06-25T23:41:28.198Z,0.10
2023-06-25T23:43:54.544Z,0.20
2023-06-25T23:46:22.221Z,0.10
2023-06-25T23:48:48.633Z,0.00
2023-06-25T23:51:14.956Z,0.00
2023-06-25T23:53:41.249Z,0.10
2023-06-25T23:56:07.518Z,0.10
2023-06-25T23:58:33.911Z,0.17
